Accueil
METAR-TAF:

METAR-TAF

Aéroports :

Aéroport international Diori Hamani

Niamey, Niger

latitude: 13-29N, longitude: 002-10E, altitude: 223 m

Observation

Le bulletin a été fait il y a 59 minutes, à 11:00 UTC
Vent 5 kt de est/sud-est, variant entre est/nord-est et sud-est
Température 32°C
Humidité 7%
Pression 1012 hPa
Visibilité: 8000 m

METAR: DRRN 181100Z 11005KT 060V140 8000 NSC 32/M08 Q1012 NOSIG

Heure: 12:59 (11:59 UTC)

Prévision

Le bulletin a été fait il y a 59 minutes, à 11:00 UTC
Prévision valable du 18 à 12 UTC au 19 à 18 UTC
Vent 8 kt de est
Visibilité: 8000 m
Temporairement
du 18 à 17 UTC au 18 à 20 UTC
Visibilité: 3500 m
poussière généralisée
Temporairement
du 19 à 06 UTC au 19 à 08 UTC
Visibilité: 3500 m
poussière généralisée
Evoluant progressivement
du 19 à 08 UTC au 19 à 10 UTC
Vent 10 kt de sud

TAF: DRRN 181100Z 1812/1918 08008KT 8000 NSC TEMPO 1817/1820 3500 DU TEMPO 1906/1908 3500 DU BECMG 1908/1910 17010KT

Observations et prévisions météorologiques de plus de 4000 aéroports (messages METAR et TAF).

Les stations disponibles sont représentées par des disques jaunes et rouges sur la carte.

Passer la souris dessus pour voir le nom de la station.

Cliquer dessus pour voir les observations et prévisions météorologiques.

Pour changer de carte: cliquez sur les boutons verts avec une croix noire pour zoomer, sur le bouton vert avec un tiret pour effectuer un zoom arrière, ou sur les flèches vertes pour les cartes adjacentes.


METAR-TAF: